createdAt,value
2018-04-17T00:00:40.680Z,51.97
2018-04-17T00:03:11.358Z,48.20
2018-04-17T00:05:42.845Z,53.03
2018-04-17T00:08:13.576Z,49.30
2018-04-17T00:10:44.661Z,46.20
2018-04-17T00:13:16.703Z,58.43
2018-04-17T00:15:47.843Z,54.73
2018-04-17T00:18:18.561Z,64.77
2018-04-17T00:20:49.670Z,76.33
2018-04-17T00:23:20.385Z,76.60
2018-04-17T00:25:51.108Z,66.97
2018-04-17T00:28:22.160Z,55.00
2018-04-17T00:30:53.192Z,50.00
2018-04-17T00:33:24.164Z,63.93
2018-04-17T00:35:55.476Z,63.50
2018-04-17T00:38:26.559Z,52.63
2018-04-17T00:40:57.580Z,71.10
2018-04-17T00:43:28.297Z,63.13
2018-04-17T00:45:59.119Z,62.90
2018-04-17T00:48:30.581Z,64.57
2018-04-17T00:51:01.684Z,64.77
2018-04-17T00:53:41.270Z,61.47
2018-04-17T00:56:12.363Z,72.63
2018-04-17T00:58:44.043Z,72.57
2018-04-17T01:01:15.721Z,60.53
2018-04-17T01:03:46.539Z,49.67
2018-04-17T01:06:18.700Z,44.53
2018-04-17T01:08:50.179Z,46.97
2018-04-17T01:11:22.080Z,50.43
2018-04-17T01:13:52.800Z,61.57
2018-04-17T01:16:23.642Z,66.53
2018-04-17T01:18:54.687Z,66.53
2018-04-17T01:21:25.914Z,64.37
2018-04-17T01:23:56.649Z,61.97
2018-04-17T01:26:27.828Z,69.07
2018-04-17T01:28:58.673Z,63.10
2018-04-17T01:31:30.488Z,62.90
2018-04-17T01:34:01.389Z,56.63
2018-04-17T01:36:32.384Z,68.43
2018-04-17T01:39:03.361Z,61.87
2018-04-17T01:41:34.788Z,65.90
2018-04-17T01:44:06.379Z,72.10
2018-04-17T01:46:37.535Z,78.67
2018-04-17T01:49:08.300Z,71.43
2018-04-17T01:51:39.204Z,67.37
2018-04-17T01:54:09.911Z,70.40
2018-04-17T01:56:40.954Z,65.70
2018-04-17T01:59:11.638Z,77.13
2018-04-17T02:01:51.726Z,81.13
2018-04-17T02:04:24.310Z,73.53
2018-04-17T02:06:55.135Z,71.90
2018-04-17T02:09:26.899Z,64.07
2018-04-17T02:11:57.610Z,84.37
2018-04-17T02:14:28.372Z,68.50
2018-04-17T02:16:59.406Z,65.53
2018-04-17T02:19:31.065Z,61.37
2018-04-17T02:22:02.140Z,72.20
2018-04-17T02:24:32.809Z,67.77
2018-04-17T02:27:04.257Z,70.40
2018-04-17T02:29:35.244Z,67.97
2018-04-17T02:32:06.242Z,89.00
2018-04-17T02:34:37.686Z,81.83
2018-04-17T02:37:08.644Z,96.73
2018-04-17T02:39:40.089Z,101.43
2018-04-17T02:42:11.958Z,111.10
2018-04-17T02:44:42.957Z,83.33
2018-04-17T02:47:14.411Z,75.30
2018-04-17T02:49:45.105Z,74.53
2018-04-17T02:52:16.204Z,78.57
2018-04-17T02:54:47.658Z,88.43
2018-04-17T02:57:19.593Z,71.90
2018-04-17T02:59:51.589Z,77.87
2018-04-17T03:02:22.428Z,84.47
2018-04-17T03:04:53.114Z,61.07
2018-04-17T03:07:24.256Z,55.90
2018-04-17T03:09:56.276Z,67.10
2018-04-17T03:12:27.817Z,59.03
2018-04-17T03:14:59.402Z,60.50
2018-04-17T03:17:31.240Z,51.00
2018-04-17T03:20:02.446Z,50.00
2018-04-17T03:22:33.889Z,56.93
2018-04-17T03:25:05.380Z,58.53
2018-04-17T03:27:36.348Z,54.10
2018-04-17T03:30:07.845Z,53.67
2018-04-17T03:32:39.913Z,53.20
2018-04-17T03:35:11.381Z,52.73
2018-04-17T03:37:42.063Z,54.83
2018-04-17T03:40:12.751Z,54.30
2018-04-17T03:42:43.853Z,62.47
2018-04-17T03:45:14.716Z,57.77
2018-04-17T03:47:45.977Z,60.27
2018-04-17T03:50:16.676Z,48.20
2018-04-17T03:52:48.228Z,62.27
2018-04-17T03:55:19.692Z,58.57
2018-04-17T03:57:50.409Z,60.87
2018-04-17T04:00:22.692Z,60.97
2018-04-17T04:02:54.889Z,63.37
2018-04-17T04:05:26.176Z,64.43
2018-04-17T04:07:57.625Z,59.07
2018-04-17T04:10:29.120Z,54.43
2018-04-17T04:13:00.269Z,55.40
2018-04-17T04:15:30.984Z,63.93
2018-04-17T04:20:17.161Z,62.00
2018-04-17T04:24:59.800Z,74.70
2018-04-17T04:27:30.871Z,61.80
2018-04-17T04:30:01.835Z,72.13
2018-04-17T04:32:34.036Z,62.90
2018-04-17T04:35:04.801Z,83.03
2018-04-17T04:37:35.692Z,81.20
2018-04-17T04:40:06.360Z,81.37
2018-04-17T04:42:37.056Z,84.20
2018-04-17T04:45:08.176Z,88.37
2018-04-17T04:47:39.225Z,76.10
2018-04-17T04:50:10.138Z,74.50
2018-04-17T04:52:40.988Z,69.97
2018-04-17T04:55:11.692Z,68.60
2018-04-17T04:57:42.433Z,83.20
2018-04-17T05:00:13.979Z,79.87
2018-04-17T05:02:44.767Z,81.03
2018-04-17T05:05:16.330Z,72.13
2018-04-17T05:07:47.804Z,76.43
2018-04-17T05:10:18.821Z,78.73
2018-04-17T05:12:49.683Z,69.00
2018-04-17T05:15:20.371Z,133.50
2018-04-17T05:17:53.465Z,80.70
2018-04-17T05:20:24.515Z,86.17
2018-04-17T05:22:56.313Z,103.10
2018-04-17T05:25:27.449Z,107.07
2018-04-17T05:27:58.600Z,85.77
2018-04-17T05:30:29.657Z,123.10
2018-04-17T05:33:01.028Z,99.67
2018-04-17T05:35:32.213Z,97.80
2018-04-17T05:38:03.319Z,108.60
2018-04-17T05:40:34.696Z,102.50
2018-04-17T05:43:06.585Z,108.27
2018-04-17T05:45:38.340Z,114.60
2018-04-17T05:48:09.774Z,129.70
2018-04-17T05:51:45.206Z,138.10
2018-04-17T05:54:16.768Z,132.73
2018-04-17T05:56:47.652Z,140.73
2018-04-17T05:59:19.341Z,141.63
2018-04-17T06:01:51.456Z,153.40
2018-04-17T06:04:22.129Z,149.27
2018-04-17T06:06:52.856Z,176.87
2018-04-17T06:09:23.723Z,165.40
2018-04-17T06:11:58.943Z,171.93
2018-04-17T06:14:50.674Z,171.17
2018-04-17T06:17:35.820Z,187.13
2018-04-17T06:20:08.639Z,161.83
2018-04-17T06:22:42.159Z,162.13
2018-04-17T06:25:17.584Z,163.57
2018-04-17T06:27:48.712Z,153.97
2018-04-17T06:30:20.056Z,128.03
2018-04-17T06:32:51.652Z,109.53
2018-04-17T06:35:23.903Z,97.93
2018-04-17T06:37:54.585Z,86.33
2018-04-17T06:40:25.948Z,85.23
2018-04-17T06:42:57.428Z,75.03
2018-04-17T06:45:28.914Z,76.90
2018-04-17T06:48:01.039Z,59.10
2018-04-17T06:50:31.955Z,54.50
2018-04-17T06:53:04.426Z,58.20
2018-04-17T06:55:35.572Z,54.53
2018-04-17T06:58:07.626Z,48.23
2018-04-17T07:00:40.320Z,36.77
2018-04-17T07:03:12.217Z,31.13
2018-04-17T07:05:43.229Z,33.60
2018-04-17T07:08:15.319Z,30.00
2018-04-17T07:10:46.376Z,25.80
2018-04-17T07:13:17.984Z,24.67
2018-04-17T07:15:50.354Z,23.80
2018-04-17T07:18:21.373Z,22.70
2018-04-17T07:20:53.879Z,26.67
2018-04-17T07:23:25.336Z,25.17
2018-04-17T07:25:56.636Z,25.13
2018-04-17T07:28:27.336Z,26.27
2018-04-17T07:30:58.701Z,25.93
2018-04-17T07:33:29.669Z,24.70
2018-04-17T07:36:02.272Z,24.20
2018-04-17T07:38:35.801Z,23.03
2018-04-17T07:41:07.545Z,24.93
2018-04-17T07:43:38.528Z,19.47
2018-04-17T07:46:11.796Z,24.10
2018-04-17T07:48:52.245Z,20.57
2018-04-17T07:51:24.461Z,25.20
2018-04-17T07:53:56.448Z,19.73
2018-04-17T07:56:27.508Z,21.20
2018-04-17T07:58:58.680Z,20.53
2018-04-17T08:01:29.857Z,21.20
2018-04-17T08:04:01.649Z,18.80
2018-04-17T08:06:32.449Z,23.43
2018-04-17T08:09:04.352Z,19.50
2018-04-17T08:11:35.879Z,21.67
2018-04-17T08:14:06.591Z,18.70
2018-04-17T08:16:40.544Z,24.77
2018-04-17T08:19:11.754Z,21.57
2018-04-17T08:21:45.472Z,19.53
2018-04-17T08:24:17.064Z,18.63
2018-04-17T08:26:48.849Z,20.50
2018-04-17T08:29:20.352Z,13.57
2018-04-17T08:31:51.118Z,14.47
2018-04-17T08:34:22.212Z,21.40
2018-04-17T08:36:52.994Z,16.90
2018-04-17T08:39:23.670Z,15.13
2018-04-17T08:41:55.476Z,14.83
2018-04-17T08:44:26.167Z,13.97
2018-04-17T08:46:58.343Z,16.23
2018-04-17T08:49:29.564Z,14.83
2018-04-17T08:52:00.436Z,16.87
2018-04-17T08:54:31.193Z,15.97
2018-04-17T08:57:02.500Z,23.03
2018-04-17T08:59:33.210Z,13.57
2018-04-17T09:02:04.097Z,17.40
2018-04-17T09:04:35.452Z,14.40
2018-04-17T09:07:07.113Z,14.33
2018-04-17T09:09:38.024Z,12.63
2018-04-17T09:12:08.995Z,11.73
2018-04-17T09:14:39.725Z,14.77
2018-04-17T09:17:10.447Z,13.17
2018-04-17T09:19:42.298Z,18.47
2018-04-17T09:22:13.600Z,14.63
2018-04-17T09:24:45.083Z,16.53
2018-04-17T09:27:16.016Z,11.23
2018-04-17T09:29:46.696Z,11.83
2018-04-17T09:32:17.915Z,12.13
2018-04-17T09:34:49.034Z,11.83
2018-04-17T09:37:19.868Z,9.33
2018-04-17T09:39:50.735Z,13.00
2018-04-17T09:42:21.416Z,13.40
2018-04-17T09:44:53.229Z,14.57
2018-04-17T09:47:23.918Z,11.63
2018-04-17T09:49:54.690Z,9.97
2018-04-17T09:52:26.521Z,12.80
2018-04-17T09:54:57.185Z,12.97
2018-04-17T09:57:27.868Z,11.83
2018-04-17T09:59:58.644Z,14.83
2018-04-17T10:02:29.448Z,13.67
2018-04-17T10:05:00.568Z,14.20
2018-04-17T10:07:32.196Z,14.23
2018-04-17T10:10:02.892Z,13.90
2018-04-17T10:12:33.576Z,12.97
2018-04-17T10:15:04.660Z,12.40
2018-04-17T10:17:35.904Z,14.10
2018-04-17T10:20:06.820Z,15.33
2018-04-17T10:22:39.824Z,16.83
2018-04-17T10:25:10.480Z,20.00
2018-04-17T10:27:41.373Z,12.30
2018-04-17T10:30:12.541Z,14.80
2018-04-17T10:32:43.548Z,15.20
2018-04-17T10:35:15.064Z,14.13
2018-04-17T10:37:45.884Z,10.03
2018-04-17T10:40:17.066Z,15.57
2018-04-17T10:42:48.683Z,18.47
2018-04-17T10:45:19.389Z,13.53
2018-04-17T10:47:50.736Z,13.80
2018-04-17T10:50:21.500Z,12.43
2018-04-17T10:52:52.376Z,12.17
2018-04-17T10:55:23.047Z,13.60
2018-04-17T10:57:53.808Z,14.57
2018-04-17T11:00:24.852Z,14.40
2018-04-17T11:02:55.564Z,13.37
2018-04-17T11:05:26.241Z,15.77
2018-04-17T11:07:57.470Z,14.40
2018-04-17T11:10:28.668Z,16.40
2018-04-17T11:12:59.755Z,16.80
2018-04-17T11:15:30.452Z,12.77
2018-04-17T11:18:01.602Z,15.73
2018-04-17T11:20:33.056Z,14.47
2018-04-17T11:23:04.672Z,14.47
2018-04-17T11:25:36.128Z,13.07
2018-04-17T11:28:07.101Z,12.63
2018-04-17T11:30:38.062Z,17.17
2018-04-17T11:33:09.564Z,17.73
2018-04-17T11:35:40.288Z,11.20
2018-04-17T11:38:12.067Z,16.00
2018-04-17T11:40:42.753Z,14.67
2018-04-17T11:43:14.501Z,10.80
2018-04-17T11:45:45.195Z,12.97
2018-04-17T11:48:16.440Z,17.07
2018-04-17T11:50:47.181Z,11.47
2018-04-17T11:53:18.277Z,13.53
2018-04-17T11:55:48.983Z,13.27
2018-04-17T11:58:19.677Z,15.67
2018-04-17T12:00:50.716Z,14.07
2018-04-17T12:03:21.596Z,16.47
2018-04-17T12:05:52.371Z,15.67
2018-04-17T12:08:23.040Z,13.30
2018-04-17T12:10:53.860Z,13.87
2018-04-17T12:13:24.712Z,17.03
2018-04-17T12:15:56.424Z,14.30
2018-04-17T12:18:28.435Z,15.60
2018-04-17T12:20:59.100Z,15.47
2018-04-17T12:23:34.413Z,15.00
2018-04-17T12:26:06.139Z,12.97
2018-04-17T12:28:38.076Z,16.90
2018-04-17T12:31:09.169Z,15.60
2018-04-17T12:33:39.843Z,12.17
2018-04-17T12:36:11.468Z,13.60
2018-04-17T12:38:51.097Z,12.07
2018-04-17T12:41:21.821Z,13.80
2018-04-17T12:43:52.813Z,11.03
2018-04-17T12:46:24.245Z,13.70
2018-04-17T12:48:56.145Z,8.93
2018-04-17T12:51:26.818Z,10.03
2018-04-17T12:53:57.512Z,12.33
2018-04-17T12:56:28.214Z,10.53
2018-04-17T12:58:59.983Z,12.77
2018-04-17T13:01:30.676Z,11.33
2018-04-17T13:04:01.654Z,11.57
2018-04-17T13:06:33.108Z,10.67
2018-04-17T13:09:05.376Z,11.07
2018-04-17T13:11:36.111Z,12.87
2018-04-17T13:14:06.961Z,12.60
2018-04-17T13:16:37.658Z,9.30
2018-04-17T13:19:09.140Z,10.57
2018-04-17T13:21:39.853Z,10.17
2018-04-17T13:24:13.539Z,13.63
2018-04-17T13:26:44.196Z,12.77
2018-04-17T13:29:15.692Z,10.60
2018-04-17T13:31:46.362Z,11.07
2018-04-17T13:34:17.476Z,10.20
2018-04-17T13:36:49.005Z,13.83
2018-04-17T13:39:19.932Z,10.97
2018-04-17T13:41:50.696Z,13.60
2018-04-17T13:44:21.936Z,10.70
2018-04-17T13:46:52.651Z,13.60
2018-04-17T13:49:24.267Z,12.30
2018-04-17T13:51:55.248Z,9.13
2018-04-17T13:54:26.060Z,11.63
2018-04-17T13:56:57.540Z,13.10
2018-04-17T13:59:29.757Z,15.37
2018-04-17T14:02:00.450Z,10.20
2018-04-17T14:04:31.842Z,13.40
2018-04-17T14:07:02.551Z,9.90
2018-04-17T14:09:33.464Z,10.60
2018-04-17T14:12:04.452Z,10.93
2018-04-17T14:14:35.898Z,11.23
2018-04-17T14:17:06.579Z,10.27
2018-04-17T14:19:37.849Z,14.83
2018-04-17T14:22:08.556Z,11.90
2018-04-17T14:24:39.365Z,9.23
2018-04-17T14:27:10.825Z,12.60
2018-04-17T14:29:41.687Z,8.13
2018-04-17T14:32:12.437Z,10.17
2018-04-17T14:34:43.411Z,10.70
2018-04-17T14:37:15.192Z,10.30
2018-04-17T14:39:47.141Z,11.33
2018-04-17T14:42:18.727Z,8.67
2018-04-17T14:44:50.240Z,10.00
2018-04-17T14:47:21.712Z,12.37
2018-04-17T14:49:52.445Z,10.80
2018-04-17T14:52:23.500Z,10.77
2018-04-17T14:54:54.200Z,9.30
2018-04-17T14:57:25.660Z,11.87
2018-04-17T14:59:57.680Z,11.20
2018-04-17T15:02:28.332Z,10.30
2018-04-17T15:04:59.034Z,9.03
2018-04-17T15:07:30.176Z,10.57
2018-04-17T15:10:01.015Z,11.10
2018-04-17T15:12:31.743Z,10.37
2018-04-17T15:15:02.821Z,11.67
2018-04-17T15:17:33.532Z,10.10
2018-04-17T15:20:04.564Z,10.90
2018-04-17T15:22:35.309Z,12.30
2018-04-17T15:25:06.103Z,10.77
2018-04-17T15:27:36.765Z,9.00
2018-04-17T15:30:07.972Z,12.23
2018-04-17T15:32:39.232Z,10.87
2018-04-17T15:35:10.212Z,12.60
2018-04-17T15:37:41.275Z,13.67
2018-04-17T15:40:11.956Z,12.60
2018-04-17T15:42:42.655Z,13.57
2018-04-17T15:45:14.284Z,13.27
2018-04-17T15:47:44.965Z,14.33
2018-04-17T15:50:16.237Z,12.70
2018-04-17T15:52:46.961Z,9.90
2018-04-17T15:55:17.957Z,13.97
2018-04-17T15:57:49.740Z,14.40
2018-04-17T16:00:20.757Z,13.97
2018-04-17T16:02:52.868Z,11.90
2018-04-17T16:05:24.143Z,13.53
2018-04-17T16:07:54.877Z,11.63
2018-04-17T16:10:25.572Z,13.07
2018-04-17T16:12:56.284Z,13.40
2018-04-17T16:15:27.156Z,14.03
2018-04-17T16:17:57.832Z,12.90
2018-04-17T16:20:28.797Z,14.20
2018-04-17T16:22:59.800Z,15.77
2018-04-17T16:25:30.573Z,14.33
2018-04-17T16:28:01.772Z,14.60
2018-04-17T16:30:32.597Z,18.23
2018-04-17T16:33:03.342Z,13.27
2018-04-17T16:35:34.979Z,12.90
2018-04-17T16:38:06.609Z,18.03
2018-04-17T16:40:37.504Z,14.07
2018-04-17T16:43:08.956Z,14.23
2018-04-17T16:45:39.912Z,12.60
2018-04-17T16:48:11.350Z,11.07
2018-04-17T16:50:42.184Z,15.63
2018-04-17T16:53:13.950Z,12.10
2018-04-17T16:55:45.504Z,14.07
2018-04-17T16:58:16.200Z,12.67
2018-04-17T17:00:47.080Z,13.50
2018-04-17T17:03:17.825Z,9.90
2018-04-17T17:05:48.940Z,13.27
2018-04-17T17:08:19.648Z,13.20
2018-04-17T17:10:50.552Z,10.00
2018-04-17T17:13:21.266Z,13.17
2018-04-17T17:59:34.576Z,16.50
2018-04-17T18:02:06.472Z,17.23
2018-04-17T18:04:38.250Z,12.60
2018-04-17T18:07:08.976Z,13.00
2018-04-17T18:09:39.936Z,15.33
2018-04-17T18:12:10.611Z,10.40
2018-04-17T18:14:41.427Z,10.23
2018-04-17T18:17:13.008Z,14.47
2018-04-17T18:19:43.705Z,12.67
2018-04-17T18:22:15.142Z,15.57
2018-04-17T18:24:45.804Z,13.13
2018-04-17T18:27:16.507Z,15.17
2018-04-17T18:29:47.468Z,18.77
2018-04-17T18:32:18.124Z,12.60
2018-04-17T18:34:48.977Z,19.10
2018-04-17T18:37:19.707Z,15.73
2018-04-17T18:39:50.467Z,15.60
2018-04-17T18:42:21.188Z,14.07
2018-04-17T18:44:52.213Z,13.40
2018-04-17T18:47:22.925Z,12.90
2018-04-17T18:49:54.057Z,13.50
2018-04-17T18:52:24.838Z,14.83
2018-04-17T18:54:55.515Z,13.30
2018-04-17T18:57:27.012Z,11.57
2018-04-17T18:59:57.812Z,12.23
2018-04-17T19:02:28.507Z,10.33
2018-04-17T19:05:00.150Z,13.50
2018-04-17T19:07:30.833Z,14.57
2018-04-17T19:10:01.545Z,15.37
2018-04-17T19:12:33.069Z,13.83
2018-04-17T19:15:04.079Z,16.07
2018-04-17T19:17:34.773Z,12.63
2018-04-17T19:20:06.808Z,14.63
2018-04-17T19:22:37.514Z,17.13
2018-04-17T19:25:08.504Z,12.80
2018-04-17T19:27:39.945Z,12.87
2018-04-17T19:30:10.880Z,13.73
2018-04-17T19:32:41.853Z,14.40
2018-04-17T19:35:12.678Z,11.07
2018-04-17T19:37:43.428Z,16.27
2018-04-17T19:40:14.891Z,12.87
2018-04-17T19:42:45.848Z,11.23
2018-04-17T19:45:16.909Z,14.83
2018-04-17T19:47:47.587Z,12.73
2018-04-17T19:50:19.049Z,16.20
2018-04-17T19:52:49.881Z,16.63
2018-04-17T19:55:20.901Z,14.10
2018-04-17T19:57:52.400Z,15.93
2018-04-17T20:00:23.149Z,13.20
2018-04-17T20:02:54.117Z,14.07
2018-04-17T20:05:25.590Z,18.93
2018-04-17T20:07:56.193Z,19.60
2018-04-17T20:10:27.800Z,18.07
2018-04-17T20:12:58.392Z,18.13
2018-04-17T20:15:29.676Z,20.43
2018-04-17T20:18:00.379Z,16.57
2018-04-17T20:20:31.446Z,17.57
2018-04-17T20:23:02.128Z,21.10
2018-04-17T20:25:33.628Z,14.63
2018-04-17T20:28:04.371Z,14.57
2018-04-17T20:30:35.072Z,17.47
2018-04-17T20:33:06.150Z,14.47
2018-04-17T20:35:37.160Z,17.17
2018-04-17T20:38:07.745Z,15.53
2018-04-17T20:40:38.420Z,15.90
2018-04-17T20:43:09.299Z,20.70
2018-04-17T20:45:40.444Z,21.43
2018-04-17T20:48:11.163Z,17.63
2018-04-17T20:50:42.281Z,15.80
2018-04-17T20:53:13.129Z,15.23
2018-04-17T20:55:44.316Z,14.40
2018-04-17T20:58:15.937Z,14.33
2018-04-17T21:00:46.756Z,17.57
2018-04-17T21:03:17.800Z,15.53
2018-04-17T21:05:48.820Z,15.03
2018-04-17T21:08:19.663Z,16.47
2018-04-17T21:10:50.796Z,16.73
2018-04-17T21:13:21.652Z,14.33
2018-04-17T21:15:52.900Z,20.23
2018-04-17T21:18:23.749Z,16.30
2018-04-17T21:20:54.436Z,15.27
2018-04-17T21:23:25.225Z,16.98
2018-04-17T21:25:56.205Z,14.13
2018-04-17T21:28:27.644Z,14.77
2018-04-17T21:30:59.081Z,15.10
2018-04-17T21:33:30.800Z,14.27
2018-04-17T21:36:01.663Z,19.20
2018-04-17T21:38:32.260Z,17.23
2018-04-17T21:41:03.100Z,15.90
2018-04-17T21:43:33.801Z,22.70
2018-04-17T21:46:05.085Z,15.60
2018-04-17T21:48:35.811Z,15.83
2018-04-17T21:51:06.493Z,19.73
2018-04-17T21:53:37.916Z,21.87
2018-04-17T21:56:08.612Z,20.00
2018-04-17T21:58:39.680Z,17.90
2018-04-17T22:01:10.356Z,17.17
2018-04-17T22:03:41.249Z,16.23
2018-04-17T22:06:12.076Z,16.83
2018-04-17T22:08:42.825Z,17.53
2018-04-17T22:11:13.804Z,13.00
2018-04-17T22:13:45.375Z,17.93
2018-04-17T22:16:16.530Z,18.40
2018-04-17T22:18:47.244Z,21.97
2018-04-17T22:21:18.308Z,18.13
2018-04-17T22:23:49.403Z,15.63
2018-04-17T22:26:21.059Z,17.93
2018-04-17T22:28:52.492Z,19.00
2018-04-17T22:31:23.612Z,20.50
2018-04-17T22:33:54.364Z,15.87
2018-04-17T22:36:25.096Z,18.50
2018-04-17T22:38:55.784Z,16.07
2018-04-17T22:41:26.908Z,17.40
2018-04-17T22:43:57.730Z,15.83
2018-04-17T22:46:29.433Z,14.10
2018-04-17T22:49:00.541Z,20.77
2018-04-17T22:51:31.540Z,17.37
2018-04-17T22:54:03.160Z,21.73
2018-04-17T22:56:33.975Z,21.33
2018-04-17T22:59:04.976Z,19.87
2018-04-17T23:01:36.288Z,19.90
2018-04-17T23:04:06.964Z,18.10
2018-04-17T23:06:37.676Z,16.93
2018-04-17T23:09:08.629Z,16.83
2018-04-17T23:11:40.236Z,18.50
2018-04-17T23:14:10.897Z,25.03
2018-04-17T23:16:42.188Z,20.73
2018-04-17T23:19:12.853Z,17.97
2018-04-17T23:21:43.580Z,20.13
2018-04-17T23:24:14.650Z,20.20
2018-04-17T23:26:46.265Z,18.03
2018-04-17T23:29:16.977Z,16.20
2018-04-17T23:31:49.068Z,18.63
2018-04-17T23:34:19.844Z,19.80
2018-04-17T23:36:51.408Z,15.07
2018-04-17T23:39:22.407Z,19.73
2018-04-17T23:41:53.300Z,20.50
2018-04-17T23:44:24.751Z,18.70
2018-04-17T23:46:55.871Z,18.77
2018-04-17T23:49:26.540Z,19.97
2018-04-17T23:51:57.256Z,17.40
2018-04-17T23:54:28.977Z,18.07
2018-04-17T23:56:59.965Z,16.60
2018-04-17T23:59:30.751Z,18.23
